sensor_id;sensor_type;location;lat;lon;timestamp;temperature;humidity
16810;DHT22;51744;50.872;4.730;2023-03-31T00:02:05;12.20;99.90
16810;DHT22;51744;50.872;4.730;2023-03-31T00:04:58;12.20;99.90
16810;DHT22;51744;50.872;4.730;2023-03-31T00:07:47;12.10;99.90
16810;DHT22;51744;50.872;4.730;2023-03-31T00:10:34;12.20;99.90
16810;DHT22;51744;50.872;4.730;2023-03-31T00:13:22;12.10;99.90
16810;DHT22;51744;50.872;4.730;2023-03-31T00:16:10;12.10;99.90
16810;DHT22;51744;50.872;4.730;2023-03-31T00:18:59;12.10;99.90
16810;DHT22;51744;50.872;4.730;2023-03-31T00:21:47;12.10;99.90
16810;DHT22;51744;50.872;4.730;2023-03-31T00:24:36;12.10;99.90
16810;DHT22;51744;50.872;4.730;2023-03-31T00:27:24;12.00;99.90
16810;DHT22;51744;50.872;4.730;2023-03-31T00:30:13;12.10;99.90
16810;DHT22;51744;50.872;4.730;2023-03-31T00:33:00;12.10;99.90
16810;DHT22;51744;50.872;4.730;2023-03-31T00:35:51;12.20;99.90
16810;DHT22;51744;50.872;4.730;2023-03-31T00:38:40;12.10;99.90
16810;DHT22;51744;50.872;4.730;2023-03-31T00:41:31;12.10;99.90
16810;DHT22;51744;50.872;4.730;2023-03-31T00:44:20;12.10;99.90
16810;DHT22;51744;50.872;4.730;2023-03-31T00:47:12;12.10;99.90
16810;DHT22;51744;50.872;4.730;2023-03-31T00:50:01;12.10;99.90
16810;DHT22;51744;50.872;4.730;2023-03-31T00:52:54;12.00;99.90
16810;DHT22;51744;50.872;4.730;2023-03-31T00:55:46;11.90;99.90
16810;DHT22;51744;50.872;4.730;2023-03-31T00:58:35;11.80;99.90
16810;DHT22;51744;50.872;4.730;2023-03-31T01:01:28;11.70;99.90
16810;DHT22;51744;50.872;4.730;2023-03-31T01:04:16;11.60;99.90
16810;DHT22;51744;50.872;4.730;2023-03-31T01:07:15;11.50;99.90
16810;DHT22;51744;50.872;4.730;2023-03-31T01:10:06;11.50;99.90
16810;DHT22;51744;50.872;4.730;2023-03-31T01:12:55;11.50;99.90
16810;DHT22;51744;50.872;4.730;2023-03-31T01:15:43;11.50;99.90
16810;DHT22;51744;50.872;4.730;2023-03-31T01:18:31;11.50;99.90
16810;DHT22;51744;50.872;4.730;2023-03-31T01:25:20;11.50;99.90
16810;DHT22;51744;50.872;4.730;2023-03-31T01:28:23;11.60;99.90
16810;DHT22;51744;50.872;4.730;2023-03-31T01:31:41;11.60;99.90
16810;DHT22;51744;50.872;4.730;2023-03-31T01:35:08;11.60;99.90
16810;DHT22;51744;50.872;4.730;2023-03-31T01:38:29;11.50;99.90
16810;DHT22;51744;50.872;4.730;2023-03-31T01:41:37;11.60;99.90
16810;DHT22;51744;50.872;4.730;2023-03-31T01:44:37;11.50;99.90
16810;DHT22;51744;50.872;4.730;2023-03-31T01:47:30;11.50;99.90
16810;DHT22;51744;50.872;4.730;2023-03-31T01:50:28;11.50;99.90
16810;DHT22;51744;50.872;4.730;2023-03-31T01:53:21;11.40;99.90
16810;DHT22;51744;50.872;4.730;2023-03-31T01:56:14;11.40;99.90
16810;DHT22;51744;50.872;4.730;2023-03-31T01:59:07;11.50;99.90
16810;DHT22;51744;50.872;4.730;2023-03-31T02:02:00;11.50;99.90
16810;DHT22;51744;50.872;4.730;2023-03-31T02:04:53;11.50;99.90
16810;DHT22;51744;50.872;4.730;2023-03-31T02:07:47;11.40;99.90
16810;DHT22;51744;50.872;4.730;2023-03-31T02:10:36;11.30;99.90
16810;DHT22;51744;50.872;4.730;2023-03-31T02:13:27;11.30;99.90
16810;DHT22;51744;50.872;4.730;2023-03-31T02:16:19;11.30;99.90
16810;DHT22;51744;50.872;4.730;2023-03-31T02:19:09;11.40;99.90
16810;DHT22;51744;50.872;4.730;2023-03-31T02:21:58;11.20;99.90
16810;DHT22;51744;50.872;4.730;2023-03-31T02:24:49;11.20;99.90
16810;DHT22;51744;50.872;4.730;2023-03-31T02:27:40;11.20;99.90
16810;DHT22;51744;50.872;4.730;2023-03-31T02:30:35;11.20;99.90
16810;DHT22;51744;50.872;4.730;2023-03-31T02:33:25;11.20;99.90
16810;DHT22;51744;50.872;4.730;2023-03-31T02:36:13;11.10;99.90
16810;DHT22;51744;50.872;4.730;2023-03-31T02:39:03;11.10;99.90
16810;DHT22;51744;50.872;4.730;2023-03-31T02:41:52;11.10;99.90
16810;DHT22;51744;50.872;4.730;2023-03-31T02:44:40;11.10;99.90
16810;DHT22;51744;50.872;4.730;2023-03-31T02:47:27;11.10;99.90
16810;DHT22;51744;50.872;4.730;2023-03-31T02:50:16;11.10;99.90
16810;DHT22;51744;50.872;4.730;2023-03-31T02:53:09;11.00;99.90
16810;DHT22;51744;50.872;4.730;2023-03-31T02:56:05;11.00;99.90
16810;DHT22;51744;50.872;4.730;2023-03-31T02:59:15;11.00;99.90
16810;DHT22;51744;50.872;4.730;2023-03-31T03:02:12;11.00;99.90
16810;DHT22;51744;50.872;4.730;2023-03-31T03:05:15;11.00;99.90
16810;DHT22;51744;50.872;4.730;2023-03-31T03:08:28;10.90;99.90
16810;DHT22;51744;50.872;4.730;2023-03-31T03:11:21;10.90;99.90
16810;DHT22;51744;50.872;4.730;2023-03-31T03:14:17;10.90;99.90
16810;DHT22;51744;50.872;4.730;2023-03-31T03:17:12;10.90;99.90
16810;DHT22;51744;50.872;4.730;2023-03-31T03:20:04;11.00;99.90
16810;DHT22;51744;50.872;4.730;2023-03-31T03:22:56;11.00;99.90
16810;DHT22;51744;50.872;4.730;2023-03-31T03:25:43;11.00;99.90
16810;DHT22;51744;50.872;4.730;2023-03-31T03:28:32;11.10;99.90
16810;DHT22;51744;50.872;4.730;2023-03-31T03:31:20;11.10;99.90
16810;DHT22;51744;50.872;4.730;2023-03-31T03:34:09;11.10;99.90
16810;DHT22;51744;50.872;4.730;2023-03-31T03:36:57;11.10;99.90
16810;DHT22;51744;50.872;4.730;2023-03-31T03:39:46;11.00;99.90
16810;DHT22;51744;50.872;4.730;2023-03-31T03:42:33;11.10;99.90
16810;DHT22;51744;50.872;4.730;2023-03-31T03:45:21;11.10;99.90
16810;DHT22;51744;50.872;4.730;2023-03-31T03:48:08;11.20;99.90
16810;DHT22;51744;50.872;4.730;2023-03-31T03:50:58;11.10;99.90
16810;DHT22;51744;50.872;4.730;2023-03-31T03:53:45;11.10;99.90
16810;DHT22;51744;50.872;4.730;2023-03-31T03:56:34;11.20;99.90
16810;DHT22;51744;50.872;4.730;2023-03-31T03:59:22;11.20;99.90
16810;DHT22;51744;50.872;4.730;2023-03-31T04:02:10;11.10;99.90
16810;DHT22;51744;50.872;4.730;2023-03-31T04:04:58;11.10;99.90
16810;DHT22;51744;50.872;4.730;2023-03-31T04:07:45;11.00;99.90
16810;DHT22;51744;50.872;4.730;2023-03-31T04:10:33;11.10;99.90
16810;DHT22;51744;50.872;4.730;2023-03-31T04:13:22;11.10;99.90
16810;DHT22;51744;50.872;4.730;2023-03-31T04:16:09;11.10;99.90
16810;DHT22;51744;50.872;4.730;2023-03-31T04:18:57;11.20;99.90
16810;DHT22;51744;50.872;4.730;2023-03-31T04:21:48;11.10;99.90
16810;DHT22;51744;50.872;4.730;2023-03-31T04:24:44;11.00;99.90
16810;DHT22;51744;50.872;4.730;2023-03-31T04:27:37;10.90;99.90
16810;DHT22;51744;50.872;4.730;2023-03-31T04:30:33;10.90;99.90
16810;DHT22;51744;50.872;4.730;2023-03-31T04:33:24;10.70;99.90
16810;DHT22;51744;50.872;4.730;2023-03-31T04:36:11;10.60;99.90
16810;DHT22;51744;50.872;4.730;2023-03-31T04:39:03;10.60;99.90
16810;DHT22;51744;50.872;4.730;2023-03-31T04:41:50;10.60;99.90
16810;DHT22;51744;50.872;4.730;2023-03-31T04:44:37;10.60;99.90
16810;DHT22;51744;50.872;4.730;2023-03-31T04:47:26;10.70;99.90
16810;DHT22;51744;50.872;4.730;2023-03-31T04:50:14;10.70;99.90
16810;DHT22;51744;50.872;4.730;2023-03-31T04:53:02;10.70;99.90
16810;DHT22;51744;50.872;4.730;2023-03-31T04:55:50;10.70;99.90
16810;DHT22;51744;50.872;4.730;2023-03-31T04:58:38;10.70;99.90
16810;DHT22;51744;50.872;4.730;2023-03-31T05:01:25;10.70;99.90
16810;DHT22;51744;50.872;4.730;2023-03-31T05:04:15;10.70;99.90
16810;DHT22;51744;50.872;4.730;2023-03-31T05:07:03;10.70;99.90
16810;DHT22;51744;50.872;4.730;2023-03-31T05:09:50;10.70;99.90
16810;DHT22;51744;50.872;4.730;2023-03-31T05:12:39;10.80;99.90
16810;DHT22;51744;50.872;4.730;2023-03-31T05:15:26;10.80;99.90
16810;DHT22;51744;50.872;4.730;2023-03-31T05:18:14;10.80;99.90
16810;DHT22;51744;50.872;4.730;2023-03-31T05:21:12;10.80;99.90
16810;DHT22;51744;50.872;4.730;2023-03-31T05:24:02;10.70;99.90
16810;DHT22;51744;50.872;4.730;2023-03-31T05:26:50;10.80;99.90
16810;DHT22;51744;50.872;4.730;2023-03-31T05:29:38;10.90;99.90
16810;DHT22;51744;50.872;4.730;2023-03-31T05:32:26;10.90;99.90
16810;DHT22;51744;50.872;4.730;2023-03-31T05:35:14;10.90;99.90
16810;DHT22;51744;50.872;4.730;2023-03-31T05:38:04;10.90;99.90
16810;DHT22;51744;50.872;4.730;2023-03-31T05:40:52;10.90;99.90
16810;DHT22;51744;50.872;4.730;2023-03-31T05:43:39;10.90;99.90
16810;DHT22;51744;50.872;4.730;2023-03-31T05:46:28;10.90;99.90
16810;DHT22;51744;50.872;4.730;2023-03-31T05:49:16;10.90;99.90
16810;DHT22;51744;50.872;4.730;2023-03-31T05:52:04;10.90;99.90
16810;DHT22;51744;50.872;4.730;2023-03-31T05:54:54;11.00;99.90
16810;DHT22;51744;50.872;4.730;2023-03-31T05:57:41;11.00;99.90
16810;DHT22;51744;50.872;4.730;2023-03-31T06:00:29;11.00;99.90
16810;DHT22;51744;50.872;4.730;2023-03-31T06:03:16;11.00;99.90
16810;DHT22;51744;50.872;4.730;2023-03-31T06:06:09;11.00;99.90
16810;DHT22;51744;50.872;4.730;2023-03-31T06:08:58;11.00;99.90
16810;DHT22;51744;50.872;4.730;2023-03-31T06:11:47;11.00;99.90
16810;DHT22;51744;50.872;4.730;2023-03-31T06:14:36;11.10;99.90
16810;DHT22;51744;50.872;4.730;2023-03-31T06:17:24;11.20;99.90
16810;DHT22;51744;50.872;4.730;2023-03-31T06:20:12;11.20;99.90
16810;DHT22;51744;50.872;4.730;2023-03-31T06:23:13;11.20;99.90
16810;DHT22;51744;50.872;4.730;2023-03-31T06:26:01;11.20;99.90
16810;DHT22;51744;50.872;4.730;2023-03-31T06:28:51;11.20;99.90
16810;DHT22;51744;50.872;4.730;2023-03-31T06:31:39;11.20;99.90
16810;DHT22;51744;50.872;4.730;2023-03-31T06:34:27;11.30;99.90
16810;DHT22;51744;50.872;4.730;2023-03-31T06:37:15;11.30;99.90
16810;DHT22;51744;50.872;4.730;2023-03-31T06:40:04;11.30;99.90
16810;DHT22;51744;50.872;4.730;2023-03-31T06:42:51;11.30;99.90
16810;DHT22;51744;50.872;4.730;2023-03-31T06:45:41;11.30;99.90
16810;DHT22;51744;50.872;4.730;2023-03-31T06:48:29;11.40;99.90
16810;DHT22;51744;50.872;4.730;2023-03-31T06:51:17;11.50;99.90
16810;DHT22;51744;50.872;4.730;2023-03-31T06:54:05;11.50;99.90
16810;DHT22;51744;50.872;4.730;2023-03-31T06:56:53;11.60;99.90
16810;DHT22;51744;50.872;4.730;2023-03-31T06:59:41;11.70;99.90
16810;DHT22;51744;50.872;4.730;2023-03-31T07:02:30;11.70;99.90
16810;DHT22;51744;50.872;4.730;2023-03-31T07:05:18;11.80;99.90
16810;DHT22;51744;50.872;4.730;2023-03-31T07:08:12;11.90;99.90
16810;DHT22;51744;50.872;4.730;2023-03-31T07:11:00;11.90;99.90
16810;DHT22;51744;50.872;4.730;2023-03-31T07:13:47;12.00;99.90
16810;DHT22;51744;50.872;4.730;2023-03-31T07:16:35;12.00;99.90
16810;DHT22;51744;50.872;4.730;2023-03-31T07:19:24;12.10;99.90
16810;DHT22;51744;50.872;4.730;2023-03-31T07:22:12;12.10;99.90
16810;DHT22;51744;50.872;4.730;2023-03-31T07:25:00;12.10;99.90
16810;DHT22;51744;50.872;4.730;2023-03-31T07:27:48;12.20;99.90
16810;DHT22;51744;50.872;4.730;2023-03-31T07:30:35;12.20;99.90
16810;DHT22;51744;50.872;4.730;2023-03-31T07:33:23;12.20;99.90
16810;DHT22;51744;50.872;4.730;2023-03-31T07:36:12;12.20;99.90
16810;DHT22;51744;50.872;4.730;2023-03-31T07:39:04;12.20;99.90
16810;DHT22;51744;50.872;4.730;2023-03-31T07:41:51;12.30;99.90
16810;DHT22;51744;50.872;4.730;2023-03-31T07:44:39;12.30;99.90
16810;DHT22;51744;50.872;4.730;2023-03-31T07:47:28;12.30;99.90
16810;DHT22;51744;50.872;4.730;2023-03-31T07:50:18;12.30;99.90
16810;DHT22;51744;50.872;4.730;2023-03-31T07:53:09;12.30;99.90
16810;DHT22;51744;50.872;4.730;2023-03-31T07:55:59;12.30;99.90
16810;DHT22;51744;50.872;4.730;2023-03-31T07:58:47;12.40;99.90
16810;DHT22;51744;50.872;4.730;2023-03-31T08:01:36;12.30;99.90
16810;DHT22;51744;50.872;4.730;2023-03-31T08:04:24;12.40;99.90
16810;DHT22;51744;50.872;4.730;2023-03-31T08:07:13;12.30;99.90
16810;DHT22;51744;50.872;4.730;2023-03-31T08:10:03;12.30;99.90
16810;DHT22;51744;50.872;4.730;2023-03-31T08:12:51;12.20;99.90
16810;DHT22;51744;50.872;4.730;2023-03-31T08:15:39;12.30;99.90
16810;DHT22;51744;50.872;4.730;2023-03-31T08:18:26;12.30;99.90
16810;DHT22;51744;50.872;4.730;2023-03-31T08:21:14;12.30;99.90
16810;DHT22;51744;50.872;4.730;2023-03-31T08:24:01;12.30;99.90
16810;DHT22;51744;50.872;4.730;2023-03-31T08:26:51;12.30;99.90
16810;DHT22;51744;50.872;4.730;2023-03-31T08:29:38;12.40;99.90
16810;DHT22;51744;50.872;4.730;2023-03-31T08:32:27;12.40;99.90
16810;DHT22;51744;50.872;4.730;2023-03-31T08:35:15;12.50;99.90
16810;DHT22;51744;50.872;4.730;2023-03-31T08:38:04;12.40;99.90
16810;DHT22;51744;50.872;4.730;2023-03-31T08:40:58;12.30;99.90
16810;DHT22;51744;50.872;4.730;2023-03-31T08:43:50;12.30;99.90
16810;DHT22;51744;50.872;4.730;2023-03-31T08:46:42;12.20;99.90
16810;DHT22;51744;50.872;4.730;2023-03-31T08:49:36;12.20;99.90
16810;DHT22;51744;50.872;4.730;2023-03-31T08:52:30;12.20;99.90
16810;DHT22;51744;50.872;4.730;2023-03-31T08:55:26;12.30;99.90
16810;DHT22;51744;50.872;4.730;2023-03-31T08:58:27;12.20;99.90
16810;DHT22;51744;50.872;4.730;2023-03-31T09:01:24;12.20;99.90
16810;DHT22;51744;50.872;4.730;2023-03-31T09:04:21;12.20;99.90
16810;DHT22;51744;50.872;4.730;2023-03-31T09:07:16;12.20;99.90
16810;DHT22;51744;50.872;4.730;2023-03-31T09:10:20;12.20;99.90
16810;DHT22;51744;50.872;4.730;2023-03-31T09:13:35;12.40;99.90
16810;DHT22;51744;50.872;4.730;2023-03-31T09:16:27;12.50;99.90
16810;DHT22;51744;50.872;4.730;2023-03-31T09:19:19;12.40;99.90
16810;DHT22;51744;50.872;4.730;2023-03-31T09:22:15;12.50;99.90
16810;DHT22;51744;50.872;4.730;2023-03-31T09:25:07;12.40;99.90
16810;DHT22;51744;50.872;4.730;2023-03-31T09:27:58;12.40;99.90
16810;DHT22;51744;50.872;4.730;2023-03-31T09:30:47;12.40;99.90
16810;DHT22;51744;50.872;4.730;2023-03-31T09:33:41;12.30;99.90
16810;DHT22;51744;50.872;4.730;2023-03-31T09:36:28;12.30;99.90
16810;DHT22;51744;50.872;4.730;2023-03-31T09:39:16;12.40;99.90
16810;DHT22;51744;50.872;4.730;2023-03-31T09:42:04;12.40;99.90
16810;DHT22;51744;50.872;4.730;2023-03-31T09:44:52;12.50;99.90
16810;DHT22;51744;50.872;4.730;2023-03-31T09:47:41;12.80;99.90
16810;DHT22;51744;50.872;4.730;2023-03-31T09:50:42;13.00;99.90
16810;DHT22;51744;50.872;4.730;2023-03-31T09:53:33;13.40;99.90
16810;DHT22;51744;50.872;4.730;2023-03-31T09:59:35;13.70;99.90
16810;DHT22;51744;50.872;4.730;2023-03-31T10:02:38;13.80;99.90
16810;DHT22;51744;50.872;4.730;2023-03-31T10:05:29;13.70;99.90
16810;DHT22;51744;50.872;4.730;2023-03-31T10:08:23;13.50;99.90
16810;DHT22;51744;50.872;4.730;2023-03-31T10:11:11;13.50;99.90
16810;DHT22;51744;50.872;4.730;2023-03-31T10:14:03;13.40;99.90
16810;DHT22;51744;50.872;4.730;2023-03-31T10:16:54;13.20;99.90
16810;DHT22;51744;50.872;4.730;2023-03-31T10:19:47;13.20;99.90
16810;DHT22;51744;50.872;4.730;2023-03-31T10:22:42;13.00;99.90
16810;DHT22;51744;50.872;4.730;2023-03-31T10:25:33;13.00;99.90
16810;DHT22;51744;50.872;4.730;2023-03-31T10:28:21;13.20;99.90
16810;DHT22;51744;50.872;4.730;2023-03-31T10:31:08;13.10;99.90
16810;DHT22;51744;50.872;4.730;2023-03-31T10:33:56;13.20;99.90
16810;DHT22;51744;50.872;4.730;2023-03-31T10:36:47;13.20;99.90
16810;DHT22;51744;50.872;4.730;2023-03-31T10:39:35;13.20;99.90
16810;DHT22;51744;50.872;4.730;2023-03-31T10:42:27;13.20;99.90
16810;DHT22;51744;50.872;4.730;2023-03-31T10:45:24;13.30;99.90
16810;DHT22;51744;50.872;4.730;2023-03-31T10:48:26;13.40;99.90
16810;DHT22;51744;50.872;4.730;2023-03-31T10:51:16;13.40;99.90
16810;DHT22;51744;50.872;4.730;2023-03-31T10:54:11;13.30;99.90
16810;DHT22;51744;50.872;4.730;2023-03-31T10:57:00;13.20;99.90
16810;DHT22;51744;50.872;4.730;2023-03-31T11:00:02;13.40;99.90
16810;DHT22;51744;50.872;4.730;2023-03-31T11:06:23;13.50;99.90
16810;DHT22;51744;50.872;4.730;2023-03-31T11:09:25;13.40;99.90
16810;DHT22;51744;50.872;4.730;2023-03-31T11:12:20;13.30;99.90
16810;DHT22;51744;50.872;4.730;2023-03-31T11:15:19;13.20;99.90
16810;DHT22;51744;50.872;4.730;2023-03-31T11:18:38;13.10;99.90
16810;DHT22;51744;50.872;4.730;2023-03-31T11:21:40;13.00;99.90
16810;DHT22;51744;50.872;4.730;2023-03-31T11:28:18;12.90;99.90
16810;DHT22;51744;50.872;4.730;2023-03-31T11:31:22;12.80;99.90
16810;DHT22;51744;50.872;4.730;2023-03-31T11:34:23;12.80;99.90
16810;DHT22;51744;50.872;4.730;2023-03-31T11:40:39;13.10;99.90
16810;DHT22;51744;50.872;4.730;2023-03-31T11:43:35;13.00;99.90
16810;DHT22;51744;50.872;4.730;2023-03-31T11:46:31;13.10;99.90
16810;DHT22;51744;50.872;4.730;2023-03-31T11:49:24;13.20;99.90
16810;DHT22;51744;50.872;4.730;2023-03-31T11:52:15;13.20;99.90
16810;DHT22;51744;50.872;4.730;2023-03-31T11:55:10;13.50;99.90
16810;DHT22;51744;50.872;4.730;2023-03-31T11:58:03;13.50;99.90
16810;DHT22;51744;50.872;4.730;2023-03-31T12:00:56;13.60;99.90
16810;DHT22;51744;50.872;4.730;2023-03-31T12:03:56;13.80;99.90
16810;DHT22;51744;50.872;4.730;2023-03-31T12:06:48;13.80;99.90
16810;DHT22;51744;50.872;4.730;2023-03-31T12:09:46;14.00;99.90
16810;DHT22;51744;50.872;4.730;2023-03-31T12:12:41;14.10;99.90
16810;DHT22;51744;50.872;4.730;2023-03-31T12:15:32;14.10;99.90
16810;DHT22;51744;50.872;4.730;2023-03-31T12:18:25;14.00;99.90
16810;DHT22;51744;50.872;4.730;2023-03-31T12:21:15;13.90;99.90
16810;DHT22;51744;50.872;4.730;2023-03-31T12:24:03;13.70;99.90
16810;DHT22;51744;50.872;4.730;2023-03-31T12:27:02;13.60;99.90
16810;DHT22;51744;50.872;4.730;2023-03-31T12:29:55;13.30;99.90
16810;DHT22;51744;50.872;4.730;2023-03-31T12:32:45;13.10;99.90
16810;DHT22;51744;50.872;4.730;2023-03-31T12:35:41;12.90;99.90
16810;DHT22;51744;50.872;4.730;2023-03-31T12:38:45;12.60;99.90
16810;DHT22;51744;50.872;4.730;2023-03-31T12:41:39;12.50;99.90
16810;DHT22;51744;50.872;4.730;2023-03-31T12:44:40;12.20;99.90
16810;DHT22;51744;50.872;4.730;2023-03-31T12:47:52;12.30;99.90
16810;DHT22;51744;50.872;4.730;2023-03-31T12:51:01;12.30;99.90
16810;DHT22;51744;50.872;4.730;2023-03-31T12:54:04;12.40;99.90
16810;DHT22;51744;50.872;4.730;2023-03-31T12:57:12;12.40;99.90
16810;DHT22;51744;50.872;4.730;2023-03-31T13:00:19;12.30;99.90
16810;DHT22;51744;50.872;4.730;2023-03-31T13:03:37;12.40;99.90
16810;DHT22;51744;50.872;4.730;2023-03-31T13:06:49;12.40;99.90
16810;DHT22;51744;50.872;4.730;2023-03-31T13:09:47;12.40;99.90
16810;DHT22;51744;50.872;4.730;2023-03-31T13:12:38;12.50;99.90
16810;DHT22;51744;50.872;4.730;2023-03-31T13:15:26;12.40;99.90
16810;DHT22;51744;50.872;4.730;2023-03-31T13:18:19;12.40;99.90
16810;DHT22;51744;50.872;4.730;2023-03-31T13:21:07;12.40;99.90
16810;DHT22;51744;50.872;4.730;2023-03-31T13:23:59;12.50;99.90
16810;DHT22;51744;50.872;4.730;2023-03-31T13:26:49;12.70;99.90
16810;DHT22;51744;50.872;4.730;2023-03-31T13:29:41;12.60;99.90
16810;DHT22;51744;50.872;4.730;2023-03-31T13:32:29;12.60;99.90
16810;DHT22;51744;50.872;4.730;2023-03-31T13:35:20;12.50;99.90
16810;DHT22;51744;50.872;4.730;2023-03-31T13:38:18;12.50;99.90
16810;DHT22;51744;50.872;4.730;2023-03-31T13:41:27;12.30;99.90
16810;DHT22;51744;50.872;4.730;2023-03-31T13:44:38;12.10;99.90
16810;DHT22;51744;50.872;4.730;2023-03-31T13:50:56;12.40;99.90
16810;DHT22;51744;50.872;4.730;2023-03-31T13:57:23;12.20;99.90
16810;DHT22;51744;50.872;4.730;2023-03-31T14:00:24;12.40;99.90
16810;DHT22;51744;50.872;4.730;2023-03-31T14:03:18;12.30;99.90
16810;DHT22;51744;50.872;4.730;2023-03-31T14:06:15;12.30;99.90
16810;DHT22;51744;50.872;4.730;2023-03-31T14:09:07;12.20;99.90
16810;DHT22;51744;50.872;4.730;2023-03-31T14:11:57;12.20;99.90
16810;DHT22;51744;50.872;4.730;2023-03-31T14:14:44;12.20;99.90
16810;DHT22;51744;50.872;4.730;2023-03-31T14:17:35;12.20;99.90
16810;DHT22;51744;50.872;4.730;2023-03-31T14:20:31;12.20;99.90
16810;DHT22;51744;50.872;4.730;2023-03-31T14:23:28;12.10;99.90
16810;DHT22;51744;50.872;4.730;2023-03-31T14:26:34;12.00;99.90
16810;DHT22;51744;50.872;4.730;2023-03-31T14:29:28;12.00;99.90
16810;DHT22;51744;50.872;4.730;2023-03-31T14:32:24;12.00;99.90
16810;DHT22;51744;50.872;4.730;2023-03-31T14:35:27;12.00;99.90
16810;DHT22;51744;50.872;4.730;2023-03-31T14:38:19;12.00;99.90
16810;DHT22;51744;50.872;4.730;2023-03-31T14:41:16;12.10;99.90
16810;DHT22;51744;50.872;4.730;2023-03-31T14:44:06;12.20;99.90
16810;DHT22;51744;50.872;4.730;2023-03-31T14:46:56;12.30;99.90
16810;DHT22;51744;50.872;4.730;2023-03-31T14:49:44;12.40;99.90
16810;DHT22;51744;50.872;4.730;2023-03-31T14:52:32;12.40;99.90
16810;DHT22;51744;50.872;4.730;2023-03-31T14:55:23;12.40;99.90
16810;DHT22;51744;50.872;4.730;2023-03-31T14:58:26;12.40;99.90
16810;DHT22;51744;50.872;4.730;2023-03-31T15:01:17;12.40;99.90
16810;DHT22;51744;50.872;4.730;2023-03-31T15:04:08;12.40;99.90
16810;DHT22;51744;50.872;4.730;2023-03-31T15:07:00;12.30;99.90
16810;DHT22;51744;50.872;4.730;2023-03-31T15:09:51;12.30;99.90
16810;DHT22;51744;50.872;4.730;2023-03-31T15:12:39;12.20;99.90
16810;DHT22;51744;50.872;4.730;2023-03-31T15:15:27;12.10;99.90
16810;DHT22;51744;50.872;4.730;2023-03-31T15:18:15;12.10;99.90
16810;DHT22;51744;50.872;4.730;2023-03-31T15:21:03;11.90;99.90
16810;DHT22;51744;50.872;4.730;2023-03-31T15:23:51;11.90;99.90
16810;DHT22;51744;50.872;4.730;2023-03-31T15:26:46;12.00;99.90
16810;DHT22;51744;50.872;4.730;2023-03-31T15:29:36;12.00;99.90
16810;DHT22;51744;50.872;4.730;2023-03-31T15:32:25;12.10;99.90
16810;DHT22;51744;50.872;4.730;2023-03-31T15:35:20;12.10;99.90
16810;DHT22;51744;50.872;4.730;2023-03-31T15:38:10;12.10;99.90
16810;DHT22;51744;50.872;4.730;2023-03-31T15:40:59;11.90;99.90
16810;DHT22;51744;50.872;4.730;2023-03-31T15:44:00;11.90;99.90
16810;DHT22;51744;50.872;4.730;2023-03-31T15:46:56;12.00;99.90
16810;DHT22;51744;50.872;4.730;2023-03-31T15:49:51;12.00;99.90
16810;DHT22;51744;50.872;4.730;2023-03-31T15:52:47;12.10;99.90
16810;DHT22;51744;50.872;4.730;2023-03-31T15:55:39;12.10;99.90
16810;DHT22;51744;50.872;4.730;2023-03-31T15:58:54;12.00;99.90
16810;DHT22;51744;50.872;4.730;2023-03-31T16:01:44;12.00;99.90
16810;DHT22;51744;50.872;4.730;2023-03-31T16:04:32;11.90;99.90
16810;DHT22;51744;50.872;4.730;2023-03-31T16:07:22;12.00;99.90
16810;DHT22;51744;50.872;4.730;2023-03-31T16:10:16;12.00;99.90
16810;DHT22;51744;50.872;4.730;2023-03-31T16:13:05;12.00;99.90
16810;DHT22;51744;50.872;4.730;2023-03-31T16:15:57;12.00;99.90
16810;DHT22;51744;50.872;4.730;2023-03-31T16:18:47;11.90;99.90
16810;DHT22;51744;50.872;4.730;2023-03-31T16:21:38;12.00;99.90
16810;DHT22;51744;50.872;4.730;2023-03-31T16:24:30;12.00;99.90
16810;DHT22;51744;50.872;4.730;2023-03-31T16:27:18;12.10;99.90
16810;DHT22;51744;50.872;4.730;2023-03-31T16:30:10;12.00;99.90
16810;DHT22;51744;50.872;4.730;2023-03-31T16:33:01;11.90;99.90
16810;DHT22;51744;50.872;4.730;2023-03-31T16:35:52;12.00;99.90
16810;DHT22;51744;50.872;4.730;2023-03-31T16:38:41;12.10;99.90
16810;DHT22;51744;50.872;4.730;2023-03-31T16:41:29;12.00;99.90
16810;DHT22;51744;50.872;4.730;2023-03-31T16:44:17;12.00;99.90
16810;DHT22;51744;50.872;4.730;2023-03-31T16:47:05;11.90;99.90
16810;DHT22;51744;50.872;4.730;2023-03-31T16:49:54;11.80;99.90
16810;DHT22;51744;50.872;4.730;2023-03-31T16:52:42;11.80;99.90
16810;DHT22;51744;50.872;4.730;2023-03-31T16:55:30;11.80;99.90
16810;DHT22;51744;50.872;4.730;2023-03-31T16:58:17;11.80;99.90
16810;DHT22;51744;50.872;4.730;2023-03-31T17:01:05;11.80;99.90
16810;DHT22;51744;50.872;4.730;2023-03-31T17:03:54;11.80;99.90
16810;DHT22;51744;50.872;4.730;2023-03-31T17:06:43;11.70;99.90
16810;DHT22;51744;50.872;4.730;2023-03-31T17:09:31;11.70;99.90
16810;DHT22;51744;50.872;4.730;2023-03-31T17:12:19;11.50;99.90
16810;DHT22;51744;50.872;4.730;2023-03-31T17:15:08;11.50;99.90
16810;DHT22;51744;50.872;4.730;2023-03-31T17:17:56;11.30;99.90
16810;DHT22;51744;50.872;4.730;2023-03-31T17:20:44;11.20;99.90
16810;DHT22;51744;50.872;4.730;2023-03-31T17:23:34;11.10;99.90
16810;DHT22;51744;50.872;4.730;2023-03-31T17:26:21;11.10;99.90
16810;DHT22;51744;50.872;4.730;2023-03-31T17:29:09;10.90;99.90
16810;DHT22;51744;50.872;4.730;2023-03-31T17:32:00;10.90;99.90
16810;DHT22;51744;50.872;4.730;2023-03-31T17:34:48;10.80;99.90
16810;DHT22;51744;50.872;4.730;2023-03-31T17:37:37;10.80;99.90
16810;DHT22;51744;50.872;4.730;2023-03-31T17:40:25;10.90;99.90
16810;DHT22;51744;50.872;4.730;2023-03-31T17:43:13;10.70;99.90
16810;DHT22;51744;50.872;4.730;2023-03-31T17:46:01;10.70;99.90
16810;DHT22;51744;50.872;4.730;2023-03-31T17:48:50;10.70;99.90
16810;DHT22;51744;50.872;4.730;2023-03-31T17:51:39;10.70;99.90
16810;DHT22;51744;50.872;4.730;2023-03-31T17:54:26;10.60;99.90
16810;DHT22;51744;50.872;4.730;2023-03-31T17:57:16;10.60;99.90
16810;DHT22;51744;50.872;4.730;2023-03-31T18:00:05;10.60;99.90
16810;DHT22;51744;50.872;4.730;2023-03-31T18:02:56;10.60;99.90
16810;DHT22;51744;50.872;4.730;2023-03-31T18:05:44;10.50;99.90
16810;DHT22;51744;50.872;4.730;2023-03-31T18:08:32;10.50;99.90
16810;DHT22;51744;50.872;4.730;2023-03-31T18:11:21;10.40;99.90
16810;DHT22;51744;50.872;4.730;2023-03-31T18:14:10;10.40;99.90
16810;DHT22;51744;50.872;4.730;2023-03-31T18:16:59;10.40;99.90
16810;DHT22;51744;50.872;4.730;2023-03-31T18:19:47;10.40;99.90
16810;DHT22;51744;50.872;4.730;2023-03-31T18:22:34;10.40;99.90
16810;DHT22;51744;50.872;4.730;2023-03-31T18:25:22;10.40;99.90
16810;DHT22;51744;50.872;4.730;2023-03-31T18:28:10;10.50;99.90
16810;DHT22;51744;50.872;4.730;2023-03-31T18:31:01;10.40;99.90